sensor_id;sensor_type;location;lat;lon;timestamp;P1;durP1;ratioP1;P2;durP2;ratioP2
56503;SDS011;48812;51.606;-0.114;2023-04-01T00:00:12;2.47;;;1.45;;
56503;SDS011;48812;51.606;-0.114;2023-04-01T00:02:45;3.63;;;1.45;;
56503;SDS011;48812;51.606;-0.114;2023-04-01T00:05:17;1.30;;;1.20;;
56503;SDS011;48812;51.606;-0.114;2023-04-01T00:07:50;4.30;;;1.40;;
56503;SDS011;48812;51.606;-0.114;2023-04-01T00:10:22;2.88;;;1.20;;
56503;SDS011;48812;51.606;-0.114;2023-04-01T00:12:55;2.73;;;1.40;;
56503;SDS011;48812;51.606;-0.114;2023-04-01T00:15:27;1.40;;;1.00;;
56503;SDS011;48812;51.606;-0.114;2023-04-01T00:18:00;1.35;;;0.93;;
56503;SDS011;48812;51.606;-0.114;2023-04-01T00:20:33;1.98;;;1.00;;
56503;SDS011;48812;51.606;-0.114;2023-04-01T00:23:05;1.70;;;1.00;;
56503;SDS011;48812;51.606;-0.114;2023-04-01T00:25:37;2.73;;;1.03;;
56503;SDS011;48812;51.606;-0.114;2023-04-01T00:28:10;1.90;;;1.07;;
56503;SDS011;48812;51.606;-0.114;2023-04-01T00:30:42;1.73;;;1.00;;
56503;SDS011;48812;51.606;-0.114;2023-04-01T00:33:15;1.90;;;1.00;;
56503;SDS011;48812;51.606;-0.114;2023-04-01T00:35:48;2.10;;;1.23;;
56503;SDS011;48812;51.606;-0.114;2023-04-01T00:38:20;1.15;;;1.00;;
56503;SDS011;48812;51.606;-0.114;2023-04-01T00:40:56;1.20;;;0.95;;
56503;SDS011;48812;51.606;-0.114;2023-04-01T00:43:30;2.03;;;1.00;;
56503;SDS011;48812;51.606;-0.114;2023-04-01T00:46:03;1.60;;;1.02;;
56503;SDS011;48812;51.606;-0.114;2023-04-01T00:48:37;1.33;;;1.00;;
56503;SDS011;48812;51.606;-0.114;2023-04-01T00:51:14;1.40;;;1.00;;
56503;SDS011;48812;51.606;-0.114;2023-04-01T00:53:50;1.88;;;1.00;;
56503;SDS011;48812;51.606;-0.114;2023-04-01T00:56:27;2.30;;;1.15;;
56503;SDS011;48812;51.606;-0.114;2023-04-01T00:59:05;2.65;;;1.20;;
56503;SDS011;48812;51.606;-0.114;2023-04-01T01:01:42;1.58;;;0.88;;
56503;SDS011;48812;51.606;-0.114;2023-04-01T01:04:26;1.77;;;1.10;;
56503;SDS011;48812;51.606;-0.114;2023-04-01T01:07:14;1.10;;;0.88;;
56503;SDS011;48812;51.606;-0.114;2023-04-01T01:15:25;1.38;;;1.05;;
56503;SDS011;48812;51.606;-0.114;2023-04-01T01:38:03;1.08;;;0.90;;
56503;SDS011;48812;51.606;-0.114;2023-04-01T01:40:39;1.10;;;0.80;;
56503;SDS011;48812;51.606;-0.114;2023-04-01T01:43:15;1.73;;;0.90;;
56503;SDS011;48812;51.606;-0.114;2023-04-01T01:45:52;1.42;;;0.90;;
56503;SDS011;48812;51.606;-0.114;2023-04-01T01:48:28;2.00;;;1.00;;
56503;SDS011;48812;51.606;-0.114;2023-04-01T01:51:04;1.13;;;0.90;;
56503;SDS011;48812;51.606;-0.114;2023-04-01T01:53:38;1.10;;;0.88;;
56503;SDS011;48812;51.606;-0.114;2023-04-01T01:56:11;1.15;;;0.82;;
56503;SDS011;48812;51.606;-0.114;2023-04-01T01:58:47;2.72;;;1.10;;
56503;SDS011;48812;51.606;-0.114;2023-04-01T02:01:29;2.05;;;0.90;;
56503;SDS011;48812;51.606;-0.114;2023-04-01T02:04:13;2.28;;;0.90;;
56503;SDS011;48812;51.606;-0.114;2023-04-01T02:07:04;1.10;;;0.80;;
56503;SDS011;48812;51.606;-0.114;2023-04-01T02:09:40;0.70;;;0.70;;
56503;SDS011;48812;51.606;-0.114;2023-04-01T02:12:15;1.20;;;0.90;;
56503;SDS011;48812;51.606;-0.114;2023-04-01T02:14:51;1.38;;;0.90;;
56503;SDS011;48812;51.606;-0.114;2023-04-01T02:17:38;1.00;;;0.80;;
56503;SDS011;48812;51.606;-0.114;2023-04-01T02:20:17;1.27;;;0.75;;
56503;SDS011;48812;51.606;-0.114;2023-04-01T02:22:53;1.27;;;0.90;;
56503;SDS011;48812;51.606;-0.114;2023-04-01T02:25:29;1.52;;;0.82;;
56503;SDS011;48812;51.606;-0.114;2023-04-01T02:28:06;2.75;;;0.85;;
56503;SDS011;48812;51.606;-0.114;2023-04-01T02:30:41;1.70;;;0.93;;
56503;SDS011;48812;51.606;-0.114;2023-04-01T02:33:16;1.10;;;0.88;;
56503;SDS011;48812;51.606;-0.114;2023-04-01T02:35:51;1.85;;;0.90;;
56503;SDS011;48812;51.606;-0.114;2023-04-01T02:38:23;1.00;;;0.85;;
56503;SDS011;48812;51.606;-0.114;2023-04-01T02:40:57;1.20;;;0.90;;
56503;SDS011;48812;51.606;-0.114;2023-04-01T02:43:31;2.17;;;0.85;;
56503;SDS011;48812;51.606;-0.114;2023-04-01T02:46:04;2.00;;;1.00;;
56503;SDS011;48812;51.606;-0.114;2023-04-01T02:48:36;1.17;;;0.87;;
56503;SDS011;48812;51.606;-0.114;2023-04-01T02:51:09;1.40;;;0.90;;
56503;SDS011;48812;51.606;-0.114;2023-04-01T02:53:41;0.73;;;0.73;;
56503;SDS011;48812;51.606;-0.114;2023-04-01T02:56:14;1.27;;;0.70;;
56503;SDS011;48812;51.606;-0.114;2023-04-01T02:58:47;1.00;;;0.90;;
56503;SDS011;48812;51.606;-0.114;2023-04-01T03:01:19;1.10;;;0.95;;
56503;SDS011;48812;51.606;-0.114;2023-04-01T03:03:52;2.33;;;0.70;;
56503;SDS011;48812;51.606;-0.114;2023-04-01T03:06:24;0.90;;;0.80;;
56503;SDS011;48812;51.606;-0.114;2023-04-01T03:08:57;1.57;;;0.80;;
56503;SDS011;48812;51.606;-0.114;2023-04-01T03:11:30;1.85;;;0.80;;
56503;SDS011;48812;51.606;-0.114;2023-04-01T03:14:03;1.15;;;0.60;;
56503;SDS011;48812;51.606;-0.114;2023-04-01T03:16:35;0.98;;;0.70;;
56503;SDS011;48812;51.606;-0.114;2023-04-01T03:19:08;1.73;;;0.70;;
56503;SDS011;48812;51.606;-0.114;2023-04-01T03:21:40;1.42;;;0.90;;
56503;SDS011;48812;51.606;-0.114;2023-04-01T03:24:13;2.03;;;0.80;;
56503;SDS011;48812;51.606;-0.114;2023-04-01T03:26:45;1.90;;;0.87;;
56503;SDS011;48812;51.606;-0.114;2023-04-01T03:29:17;0.90;;;0.80;;
56503;SDS011;48812;51.606;-0.114;2023-04-01T03:31:50;0.97;;;0.70;;
56503;SDS011;48812;51.606;-0.114;2023-04-01T03:34:23;0.80;;;0.70;;
56503;SDS011;48812;51.606;-0.114;2023-04-01T03:36:56;1.08;;;0.77;;
56503;SDS011;48812;51.606;-0.114;2023-04-01T03:39:28;1.17;;;0.82;;
56503;SDS011;48812;51.606;-0.114;2023-04-01T03:42:02;1.52;;;0.80;;
56503;SDS011;48812;51.606;-0.114;2023-04-01T03:44:35;0.73;;;0.70;;
56503;SDS011;48812;51.606;-0.114;2023-04-01T03:47:08;1.60;;;0.80;;
56503;SDS011;48812;51.606;-0.114;2023-04-01T03:49:43;1.50;;;0.80;;
56503;SDS011;48812;51.606;-0.114;2023-04-01T03:52:16;2.88;;;0.73;;
56503;SDS011;48812;51.606;-0.114;2023-04-01T03:54:48;1.45;;;0.90;;
56503;SDS011;48812;51.606;-0.114;2023-04-01T03:57:21;1.13;;;0.80;;
56503;SDS011;48812;51.606;-0.114;2023-04-01T03:59:54;1.92;;;0.90;;
56503;SDS011;48812;51.606;-0.114;2023-04-01T04:02:26;0.80;;;0.73;;
56503;SDS011;48812;51.606;-0.114;2023-04-01T04:04:59;1.58;;;0.80;;
56503;SDS011;48812;51.606;-0.114;2023-04-01T04:07:34;0.80;;;0.73;;
56503;SDS011;48812;51.606;-0.114;2023-04-01T04:10:10;0.80;;;0.68;;
56503;SDS011;48812;51.606;-0.114;2023-04-01T04:12:42;2.22;;;0.80;;
56503;SDS011;48812;51.606;-0.114;2023-04-01T04:17:48;1.42;;;0.70;;
56503;SDS011;48812;51.606;-0.114;2023-04-01T04:20:20;1.02;;;0.80;;
56503;SDS011;48812;51.606;-0.114;2023-04-01T04:22:53;1.60;;;0.55;;
56503;SDS011;48812;51.606;-0.114;2023-04-01T04:25:26;1.00;;;0.80;;
56503;SDS011;48812;51.606;-0.114;2023-04-01T04:27:58;0.88;;;0.75;;
56503;SDS011;48812;51.606;-0.114;2023-04-01T04:30:30;1.30;;;0.97;;
56503;SDS011;48812;51.606;-0.114;2023-04-01T04:33:03;3.25;;;0.75;;
56503;SDS011;48812;51.606;-0.114;2023-04-01T04:35:35;1.63;;;0.73;;
56503;SDS011;48812;51.606;-0.114;2023-04-01T04:38:09;0.65;;;0.60;;
56503;SDS011;48812;51.606;-0.114;2023-04-01T04:40:41;1.10;;;0.80;;
56503;SDS011;48812;51.606;-0.114;2023-04-01T04:43:15;1.55;;;0.82;;
56503;SDS011;48812;51.606;-0.114;2023-04-01T04:45:49;1.17;;;0.60;;
56503;SDS011;48812;51.606;-0.114;2023-04-01T04:48:22;1.00;;;0.73;;
56503;SDS011;48812;51.606;-0.114;2023-04-01T04:50:54;1.00;;;0.70;;
56503;SDS011;48812;51.606;-0.114;2023-04-01T04:53:28;2.45;;;0.50;;
56503;SDS011;48812;51.606;-0.114;2023-04-01T04:56:01;0.90;;;0.73;;
56503;SDS011;48812;51.606;-0.114;2023-04-01T04:58:47;1.40;;;0.60;;
56503;SDS011;48812;51.606;-0.114;2023-04-01T05:01:28;0.70;;;0.70;;
56503;SDS011;48812;51.606;-0.114;2023-04-01T05:04:01;0.80;;;0.70;;
56503;SDS011;48812;51.606;-0.114;2023-04-01T05:06:33;0.90;;;0.60;;
56503;SDS011;48812;51.606;-0.114;2023-04-01T05:09:06;1.25;;;0.77;;
56503;SDS011;48812;51.606;-0.114;2023-04-01T05:11:38;0.70;;;0.60;;
56503;SDS011;48812;51.606;-0.114;2023-04-01T05:14:14;0.82;;;0.68;;
56503;SDS011;48812;51.606;-0.114;2023-04-01T05:16:58;0.90;;;0.70;;
56503;SDS011;48812;51.606;-0.114;2023-04-01T05:19:30;1.13;;;0.70;;
56503;SDS011;48812;51.606;-0.114;2023-04-01T05:22:03;0.90;;;0.57;;
56503;SDS011;48812;51.606;-0.114;2023-04-01T05:24:36;0.85;;;0.65;;
56503;SDS011;48812;51.606;-0.114;2023-04-01T05:27:08;1.00;;;0.60;;
56503;SDS011;48812;51.606;-0.114;2023-04-01T05:29:50;1.30;;;0.60;;
56503;SDS011;48812;51.606;-0.114;2023-04-01T05:32:41;0.95;;;0.60;;
56503;SDS011;48812;51.606;-0.114;2023-04-01T05:35:13;1.30;;;0.60;;
56503;SDS011;48812;51.606;-0.114;2023-04-01T05:37:46;0.70;;;0.60;;
56503;SDS011;48812;51.606;-0.114;2023-04-01T05:40:19;0.50;;;0.43;;
56503;SDS011;48812;51.606;-0.114;2023-04-01T05:42:51;0.60;;;0.60;;
56503;SDS011;48812;51.606;-0.114;2023-04-01T05:45:23;1.23;;;0.77;;
56503;SDS011;48812;51.606;-0.114;2023-04-01T05:48:08;1.13;;;0.70;;
56503;SDS011;48812;51.606;-0.114;2023-04-01T05:50:43;0.98;;;0.70;;
56503;SDS011;48812;51.606;-0.114;2023-04-01T05:53:16;1.05;;;0.80;;
56503;SDS011;48812;51.606;-0.114;2023-04-01T05:55:48;1.33;;;0.80;;
56503;SDS011;48812;51.606;-0.114;2023-04-01T05:58:22;0.85;;;0.60;;
56503;SDS011;48812;51.606;-0.114;2023-04-01T06:01:02;0.70;;;0.60;;
56503;SDS011;48812;51.606;-0.114;2023-04-01T06:03:40;0.50;;;0.50;;
56503;SDS011;48812;51.606;-0.114;2023-04-01T06:06:24;0.50;;;0.40;;
56503;SDS011;48812;51.606;-0.114;2023-04-01T06:09:45;1.30;;;0.70;;
56503;SDS011;48812;51.606;-0.114;2023-04-01T06:15:10;1.55;;;0.68;;
56503;SDS011;48812;51.606;-0.114;2023-04-01T06:18:03;1.08;;;0.43;;
56503;SDS011;48812;51.606;-0.114;2023-04-01T06:21:01;0.63;;;0.50;;
56503;SDS011;48812;51.606;-0.114;2023-04-01T06:24:11;0.57;;;0.50;;
56503;SDS011;48812;51.606;-0.114;2023-04-01T06:27:02;1.67;;;0.55;;
56503;SDS011;48812;51.606;-0.114;2023-04-01T06:29:56;0.93;;;0.60;;
56503;SDS011;48812;51.606;-0.114;2023-04-01T06:41:23;0.57;;;0.57;;
56503;SDS011;48812;51.606;-0.114;2023-04-01T06:44:39;0.95;;;0.50;;
56503;SDS011;48812;51.606;-0.114;2023-04-01T06:54:04;0.93;;;0.60;;
56503;SDS011;48812;51.606;-0.114;2023-04-01T06:57:19;2.75;;;1.00;;
56503;SDS011;48812;51.606;-0.114;2023-04-01T06:59:56;2.67;;;0.90;;
56503;SDS011;48812;51.606;-0.114;2023-04-01T07:05:16;5.07;;;0.60;;
56503;SDS011;48812;51.606;-0.114;2023-04-01T07:07:50;2.28;;;0.95;;
56503;SDS011;48812;51.606;-0.114;2023-04-01T07:10:32;5.50;;;0.90;;
56503;SDS011;48812;51.606;-0.114;2023-04-01T07:16:20;1.50;;;0.75;;
56503;SDS011;48812;51.606;-0.114;2023-04-01T07:19:09;0.88;;;0.60;;
56503;SDS011;48812;51.606;-0.114;2023-04-01T07:22:27;3.03;;;0.80;;
56503;SDS011;48812;51.606;-0.114;2023-04-01T07:25:25;2.05;;;0.90;;
56503;SDS011;48812;51.606;-0.114;2023-04-01T07:28:15;1.90;;;0.82;;
56503;SDS011;48812;51.606;-0.114;2023-04-01T07:34:26;3.30;;;0.80;;
56503;SDS011;48812;51.606;-0.114;2023-04-01T07:37:10;7.35;;;0.75;;
56503;SDS011;48812;51.606;-0.114;2023-04-01T07:46:17;8.52;;;1.30;;
56503;SDS011;48812;51.606;-0.114;2023-04-01T07:48:58;1.95;;;1.00;;
56503;SDS011;48812;51.606;-0.114;2023-04-01T07:51:58;4.78;;;1.05;;
56503;SDS011;48812;51.606;-0.114;2023-04-01T07:54:56;5.68;;;1.30;;
56503;SDS011;48812;51.606;-0.114;2023-04-01T07:57:45;5.65;;;1.50;;
56503;SDS011;48812;51.606;-0.114;2023-04-01T08:03:31;13.88;;;1.10;;
56503;SDS011;48812;51.606;-0.114;2023-04-01T08:09:06;5.85;;;1.80;;
56503;SDS011;48812;51.606;-0.114;2023-04-01T08:12:15;5.05;;;1.27;;
56503;SDS011;48812;51.606;-0.114;2023-04-01T08:18:12;2.60;;;1.05;;
56503;SDS011;48812;51.606;-0.114;2023-04-01T08:21:01;5.47;;;1.38;;
56503;SDS011;48812;51.606;-0.114;2023-04-01T08:23:45;5.22;;;1.65;;
56503;SDS011;48812;51.606;-0.114;2023-04-01T08:26:34;9.80;;;1.60;;
56503;SDS011;48812;51.606;-0.114;2023-04-01T08:29:21;5.78;;;1.33;;
56503;SDS011;48812;51.606;-0.114;2023-04-01T08:32:00;6.45;;;1.40;;
56503;SDS011;48812;51.606;-0.114;2023-04-01T08:34:44;5.10;;;1.70;;
56503;SDS011;48812;51.606;-0.114;2023-04-01T08:37:30;3.58;;;1.40;;
56503;SDS011;48812;51.606;-0.114;2023-04-01T08:48:08;6.32;;;1.70;;
56503;SDS011;48812;51.606;-0.114;2023-04-01T09:18:11;4.50;;;1.38;;
56503;SDS011;48812;51.606;-0.114;2023-04-01T09:24:52;3.83;;;1.48;;
56503;SDS011;48812;51.606;-0.114;2023-04-01T09:27:04;4.07;;;1.25;;
56503;SDS011;48812;51.606;-0.114;2023-04-01T09:38:42;3.30;;;1.23;;
56503;SDS011;48812;51.606;-0.114;2023-04-01T09:41:39;4.57;;;1.45;;
56503;SDS011;48812;51.606;-0.114;2023-04-01T09:44:58;3.33;;;1.35;;
56503;SDS011;48812;51.606;-0.114;2023-04-01T09:58:52;3.65;;;1.45;;
56503;SDS011;48812;51.606;-0.114;2023-04-01T10:02:22;1.88;;;1.10;;
56503;SDS011;48812;51.606;-0.114;2023-04-01T10:11:15;2.88;;;1.67;;
56503;SDS011;48812;51.606;-0.114;2023-04-01T10:50:34;5.68;;;1.77;;
56503;SDS011;48812;51.606;-0.114;2023-04-01T10:53:32;9.20;;;1.75;;
56503;SDS011;48812;51.606;-0.114;2023-04-01T10:56:38;10.10;;;2.00;;
56503;SDS011;48812;51.606;-0.114;2023-04-01T11:09:00;14.02;;;2.35;;
56503;SDS011;48812;51.606;-0.114;2023-04-01T11:37:03;6.47;;;2.13;;
56503;SDS011;48812;51.606;-0.114;2023-04-01T11:43:16;8.07;;;1.98;;
56503;SDS011;48812;51.606;-0.114;2023-04-01T11:46:29;8.38;;;2.20;;
56503;SDS011;48812;51.606;-0.114;2023-04-01T11:55:23;3.95;;;2.10;;
56503;SDS011;48812;51.606;-0.114;2023-04-01T12:00:43;4.68;;;1.90;;
56503;SDS011;48812;51.606;-0.114;2023-04-01T12:03:50;3.42;;;1.63;;
56503;SDS011;48812;51.606;-0.114;2023-04-01T12:06:59;5.68;;;2.10;;
56503;SDS011;48812;51.606;-0.114;2023-04-01T12:10:16;4.82;;;1.80;;
56503;SDS011;48812;51.606;-0.114;2023-04-01T12:18:54;3.78;;;1.95;;
56503;SDS011;48812;51.606;-0.114;2023-04-01T12:24:43;7.78;;;1.77;;
56503;SDS011;48812;51.606;-0.114;2023-04-01T12:27:32;4.70;;;1.63;;
56503;SDS011;48812;51.606;-0.114;2023-04-01T12:30:18;5.70;;;1.83;;
56503;SDS011;48812;51.606;-0.114;2023-04-01T13:01:34;5.75;;;1.60;;
56503;SDS011;48812;51.606;-0.114;2023-04-01T13:04:37;13.30;;;1.63;;
56503;SDS011;48812;51.606;-0.114;2023-04-01T13:15:41;5.35;;;1.77;;
56503;SDS011;48812;51.606;-0.114;2023-04-01T13:29:39;5.72;;;1.42;;
56503;SDS011;48812;51.606;-0.114;2023-04-01T13:32:19;4.93;;;1.92;;
56503;SDS011;48812;51.606;-0.114;2023-04-01T13:35:17;5.05;;;1.40;;
56503;SDS011;48812;51.606;-0.114;2023-04-01T13:46:46;3.72;;;1.73;;
56503;SDS011;48812;51.606;-0.114;2023-04-01T14:06:45;3.20;;;1.70;;
56503;SDS011;48812;51.606;-0.114;2023-04-01T14:12:40;3.58;;;1.60;;
56503;SDS011;48812;51.606;-0.114;2023-04-01T14:24:06;2.47;;;1.20;;
56503;SDS011;48812;51.606;-0.114;2023-04-01T14:38:27;3.72;;;1.42;;
56503;SDS011;48812;51.606;-0.114;2023-04-01T14:50:18;3.90;;;1.58;;
56503;SDS011;48812;51.606;-0.114;2023-04-01T14:55:47;2.83;;;1.48;;
56503;SDS011;48812;51.606;-0.114;2023-04-01T14:58:24;4.95;;;1.60;;
56503;SDS011;48812;51.606;-0.114;2023-04-01T15:04:11;2.78;;;1.67;;
56503;SDS011;48812;51.606;-0.114;2023-04-01T15:09:45;6.03;;;1.60;;
56503;SDS011;48812;51.606;-0.114;2023-04-01T15:12:23;3.03;;;1.50;;
56503;SDS011;48812;51.606;-0.114;2023-04-01T15:20:33;3.90;;;1.63;;
56503;SDS011;48812;51.606;-0.114;2023-04-01T15:26:26;4.00;;;1.92;;
56503;SDS011;48812;51.606;-0.114;2023-04-01T15:32:17;4.55;;;1.58;;
56503;SDS011;48812;51.606;-0.114;2023-04-01T15:37:55;2.92;;;1.55;;
56503;SDS011;48812;51.606;-0.114;2023-04-01T16:03:51;4.43;;;2.03;;
56503;SDS011;48812;51.606;-0.114;2023-04-01T16:12:04;3.08;;;1.70;;
56503;SDS011;48812;51.606;-0.114;2023-04-01T16:23:58;3.75;;;2.00;;
56503;SDS011;48812;51.606;-0.114;2023-04-01T16:34:57;7.00;;;2.10;;
56503;SDS011;48812;51.606;-0.114;2023-04-01T16:37:33;3.00;;;1.70;;
56503;SDS011;48812;51.606;-0.114;2023-04-01T16:57:18;4.53;;;2.13;;
56503;SDS011;48812;51.606;-0.114;2023-04-01T16:59:57;4.70;;;2.33;;
56503;SDS011;48812;51.606;-0.114;2023-04-01T17:02:43;6.88;;;2.35;;
56503;SDS011;48812;51.606;-0.114;2023-04-01T17:05:34;6.30;;;1.90;;
56503;SDS011;48812;51.606;-0.114;2023-04-01T17:08:17;5.70;;;2.05;;
56503;SDS011;48812;51.606;-0.114;2023-04-01T17:10:59;7.85;;;2.05;;
56503;SDS011;48812;51.606;-0.114;2023-04-01T17:13:46;10.95;;;2.35;;
56503;SDS011;48812;51.606;-0.114;2023-04-01T17:19:32;5.45;;;1.98;;
56503;SDS011;48812;51.606;-0.114;2023-04-01T17:28:08;6.70;;;2.00;;
56503;SDS011;48812;51.606;-0.114;2023-04-01T17:33:57;10.65;;;2.15;;
56503;SDS011;48812;51.606;-0.114;2023-04-01T17:36:36;5.97;;;2.28;;
56503;SDS011;48812;51.606;-0.114;2023-04-01T17:39:23;11.15;;;2.17;;
56503;SDS011;48812;51.606;-0.114;2023-04-01T17:45:11;8.07;;;2.08;;
56503;SDS011;48812;51.606;-0.114;2023-04-01T17:51:01;12.63;;;2.45;;
56503;SDS011;48812;51.606;-0.114;2023-04-01T18:10:41;7.05;;;2.83;;
56503;SDS011;48812;51.606;-0.114;2023-04-01T18:21:52;9.15;;;2.13;;
56503;SDS011;48812;51.606;-0.114;2023-04-01T18:24:29;8.90;;;2.28;;
56503;SDS011;48812;51.606;-0.114;2023-04-01T18:29:52;5.70;;;1.90;;
56503;SDS011;48812;51.606;-0.114;2023-04-01T18:32:35;11.95;;;2.40;;
56503;SDS011;48812;51.606;-0.114;2023-04-01T18:43:53;4.28;;;1.83;;
56503;SDS011;48812;51.606;-0.114;2023-04-01T19:18:40;3.90;;;1.63;;
56503;SDS011;48812;51.606;-0.114;2023-04-01T19:24:38;5.32;;;1.85;;
56503;SDS011;48812;51.606;-0.114;2023-04-01T19:30:27;4.28;;;1.50;;
56503;SDS011;48812;51.606;-0.114;2023-04-01T19:44:16;4.63;;;1.75;;
56503;SDS011;48812;51.606;-0.114;2023-04-01T19:47:24;3.38;;;1.60;;
56503;SDS011;48812;51.606;-0.114;2023-04-01T19:53:28;3.67;;;1.58;;
56503;SDS011;48812;51.606;-0.114;2023-04-01T19:56:39;5.57;;;1.95;;
56503;SDS011;48812;51.606;-0.114;2023-04-01T20:02:11;3.30;;;1.83;;
56503;SDS011;48812;51.606;-0.114;2023-04-01T20:04:49;3.63;;;1.50;;
56503;SDS011;48812;51.606;-0.114;2023-04-01T20:10:58;4.60;;;1.55;;
56503;SDS011;48812;51.606;-0.114;2023-04-01T20:16:48;4.30;;;1.50;;
56503;SDS011;48812;51.606;-0.114;2023-04-01T20:25:27;11.57;;;1.80;;
56503;SDS011;48812;51.606;-0.114;2023-04-01T20:28:10;8.00;;;1.60;;
56503;SDS011;48812;51.606;-0.114;2023-04-01T20:33:37;1.85;;;1.38;;
56503;SDS011;48812;51.606;-0.114;2023-04-01T20:43:07;3.05;;;1.38;;
56503;SDS011;48812;51.606;-0.114;2023-04-01T21:16:11;3.30;;;1.20;;
56503;SDS011;48812;51.606;-0.114;2023-04-01T21:41:56;2.03;;;1.10;;
56503;SDS011;48812;51.606;-0.114;2023-04-01T21:50:44;3.33;;;1.25;;
56503;SDS011;48812;51.606;-0.114;2023-04-01T22:06:47;3.28;;;1.30;;
56503;SDS011;48812;51.606;-0.114;2023-04-01T22:09:03;3.45;;;1.08;;
56503;SDS011;48812;51.606;-0.114;2023-04-01T22:17:30;2.80;;;1.20;;
56503;SDS011;48812;51.606;-0.114;2023-04-01T22:20:33;2.65;;;1.10;;
56503;SDS011;48812;51.606;-0.114;2023-04-01T22:23:16;2.88;;;1.20;;
56503;SDS011;48812;51.606;-0.114;2023-04-01T22:26:19;2.58;;;1.00;;
56503;SDS011;48812;51.606;-0.114;2023-04-01T22:29:14;2.90;;;1.50;;
56503;SDS011;48812;51.606;-0.114;2023-04-01T22:32:08;2.63;;;1.20;;
56503;SDS011;48812;51.606;-0.114;2023-04-01T22:35:04;1.13;;;0.90;;
56503;SDS011;48812;51.606;-0.114;2023-04-01T22:37:58;1.83;;;1.08;;
56503;SDS011;48812;51.606;-0.114;2023-04-01T22:40:56;2.75;;;1.20;;
56503;SDS011;48812;51.606;-0.114;2023-04-01T22:49:27;2.13;;;1.30;;
56503;SDS011;48812;51.606;-0.114;2023-04-01T22:52:13;1.85;;;1.10;;
56503;SDS011;48812;51.606;-0.114;2023-04-01T22:54:58;1.55;;;1.00;;
56503;SDS011;48812;51.606;-0.114;2023-04-01T23:00:24;2.17;;;1.33;;
56503;SDS011;48812;51.606;-0.114;2023-04-01T23:03:43;2.13;;;1.00;;
56503;SDS011;48812;51.606;-0.114;2023-04-01T23:05:56;3.13;;;1.10;;
56503;SDS011;48812;51.606;-0.114;2023-04-01T23:11:16;2.35;;;1.00;;
56503;SDS011;48812;51.606;-0.114;2023-04-01T23:16:54;1.83;;;1.10;;
56503;SDS011;48812;51.606;-0.114;2023-04-01T23:19:51;2.63;;;0.98;;
56503;SDS011;48812;51.606;-0.114;2023-04-01T23:25:58;1.83;;;0.88;;
56503;SDS011;48812;51.606;-0.114;2023-04-01T23:31:28;1.75;;;0.82;;
56503;SDS011;48812;51.606;-0.114;2023-04-01T23:34:02;2.28;;;1.25;;
56503;SDS011;48812;51.606;-0.114;2023-04-01T23:36:48;2.85;;;1.20;;
56503;SDS011;48812;51.606;-0.114;2023-04-01T23:39:35;3.22;;;1.10;;
56503;SDS011;48812;51.606;-0.114;2023-04-01T23:42:19;2.33;;;0.82;;
56503;SDS011;48812;51.606;-0.114;2023-04-01T23:44:55;2.95;;;1.20;;
56503;SDS011;48812;51.606;-0.114;2023-04-01T23:50:10;2.85;;;1.20;;
56503;SDS011;48812;51.606;-0.114;2023-04-01T23:52:47;2.58;;;1.10;;
56503;SDS011;48812;51.606;-0.114;2023-04-01T23:55:28;2.83;;;0.90;;
